Time;durP1;ratioP1;P1;durP2;ratioP2;P2;SDS_P1;SDS_P2;PMS_P1;PMS_P2;Temp;Humidity;BMP_temperature;BMP_pressure;BME280_temperature;BME280_humidity;BME280_pressure;Samples;Min_cycle;Max_cycle;Signal;HPM_P1;HPM_P2
2021/09/17 00:00:29;;;;;;;26.15;18.5;;;;;;;13.32;100;95323.36;;;;
2021/09/17 00:01:31;;;;;;;26.15;18.5;;;;;;;13.32;100;95323.36;;;;
2021/09/17 00:02:31;;;;;;;26.15;18.5;;;;;;;13.32;100;95323.36;;;;
2021/09/17 00:03:32;;;;;;;26.15;18.5;;;;;;;13.32;100;95323.36;;;;
2021/09/17 00:04:32;;;;;;;26.15;18.5;;;;;;;13.32;100;95323.36;;;;
2021/09/17 00:05:33;;;;;;;28.7;18.25;;;;;;;13.23;100;95322.58;;;;
2021/09/17 00:06:33;;;;;;;28.7;18.25;;;;;;;13.23;100;95322.58;;;;
2021/09/17 00:07:34;;;;;;;28.7;18.25;;;;;;;13.23;100;95322.58;;;;
2021/09/17 00:08:34;;;;;;;28.7;18.25;;;;;;;13.23;100;95322.58;;;;
2021/09/17 00:09:35;;;;;;;28.7;18.25;;;;;;;13.23;100;95322.58;;;;
2021/09/17 00:10:35;;;;;;;28.7;18.25;;;;;;;13.23;100;95322.58;;;;
2021/09/17 00:11:36;;;;;;;28.7;18.25;;;;;;;13.23;100;95322.58;;;;
2021/09/17 00:12:38;;;;;;;28.7;18.25;;;;;;;13.23;100;95322.58;;;;
2021/09/17 00:13:39;;;;;;;28.7;18.25;;;;;;;13.23;100;95322.58;;;;
2021/09/17 00:14:40;;;;;;;28.7;18.25;;;;;;;13.23;100;95322.58;;;;
2021/09/17 00:15:41;;;;;;;28.7;18.25;;;;;;;13.23;100;95322.58;;;;
2021/09/17 00:16:41;;;;;;;26.3;17.6;;;;;;;13.15;100;95325.73;;;;
2021/09/17 00:17:42;;;;;;;26.3;17.6;;;;;;;13.15;100;95325.73;;;;
2021/09/17 00:18:44;;;;;;;26.3;17.6;;;;;;;13.15;100;95325.73;;;;
2021/09/17 00:19:45;;;;;;;26.3;17.6;;;;;;;13.15;100;95325.73;;;;
2021/09/17 00:20:45;;;;;;;26.3;17.6;;;;;;;13.15;100;95325.73;;;;
2021/09/17 00:21:46;;;;;;;26.3;17.6;;;;;;;13.15;100;95325.73;;;;
2021/09/17 00:22:48;;;;;;;26.3;17.6;;;;;;;13.15;100;95325.73;;;;
2021/09/17 00:23:48;;;;;;;26.3;17.6;;;;;;;13.15;100;95325.73;;;;
2021/09/17 00:24:49;;;;;;;26.3;17.6;;;;;;;13.15;100;95325.73;;;;
2021/09/17 00:25:49;;;;;;;26.3;17.6;;;;;;;13.15;100;95325.73;;;;
2021/09/17 00:26:50;;;;;;;20.6;15.65;;;;;;;12.97;100;95313.23;;;;
2021/09/17 00:27:52;;;;;;;20.6;15.65;;;;;;;12.97;100;95313.23;;;;
2021/09/17 00:28:52;;;;;;;20.6;15.65;;;;;;;12.97;100;95313.23;;;;
2021/09/17 00:29:53;;;;;;;20.6;15.65;;;;;;;12.97;100;95313.23;;;;
2021/09/17 00:30:53;;;;;;;20.6;15.65;;;;;;;12.97;100;95313.23;;;;
2021/09/17 00:31:54;;;;;;;20.6;15.65;;;;;;;12.97;100;95313.23;;;;
2021/09/17 00:32:54;;;;;;;20.6;15.65;;;;;;;12.97;100;95313.23;;;;
2021/09/17 00:33:55;;;;;;;20.6;15.65;;;;;;;12.97;100;95313.23;;;;
2021/09/17 00:34:55;;;;;;;20.6;15.65;;;;;;;12.97;100;95313.23;;;;
2021/09/17 00:35:56;;;;;;;20.6;15.65;;;;;;;12.97;100;95313.23;;;;
2021/09/17 00:36:57;;;;;;;20.6;15.65;;;;;;;12.97;100;95313.23;;;;
2021/09/17 00:37:57;;;;;;;26.15;16.45;;;;;;;12.62;100;95321.26;;;;
2021/09/17 00:38:58;;;;;;;26.15;16.45;;;;;;;12.62;100;95321.26;;;;
2021/09/17 00:39:58;;;;;;;26.15;16.45;;;;;;;12.62;100;95321.26;;;;
2021/09/17 00:40:59;;;;;;;26.15;16.45;;;;;;;12.62;100;95321.26;;;;
2021/09/17 00:41:59;;;;;;;26.15;16.45;;;;;;;12.62;100;95321.26;;;;
2021/09/17 00:43:00;;;;;;;26.15;16.45;;;;;;;12.62;100;95321.26;;;;
2021/09/17 00:44:01;;;;;;;26.15;16.45;;;;;;;12.62;100;95321.26;;;;
2021/09/17 00:45:01;;;;;;;26.15;16.45;;;;;;;12.62;100;95321.26;;;;
2021/09/17 00:46:04;;;;;;;26.15;16.45;;;;;;;12.62;100;95321.26;;;;
2021/09/17 00:47:04;;;;;;;26.15;16.45;;;;;;;12.62;100;95321.26;;;;
2021/09/17 00:48:05;;;;;;;20.75;15.65;;;;;;;12.31;100;95307.36;;;;
2021/09/17 00:49:06;;;;;;;20.75;15.65;;;;;;;12.31;100;95307.36;;;;
2021/09/17 00:50:06;;;;;;;20.75;15.65;;;;;;;12.31;100;95307.36;;;;
2021/09/17 00:51:09;;;;;;;20.75;15.65;;;;;;;12.31;100;95307.36;;;;
2021/09/17 00:52:10;;;;;;;20.75;15.65;;;;;;;12.31;100;95307.36;;;;
2021/09/17 00:53:10;;;;;;;20.75;15.65;;;;;;;12.31;100;95307.36;;;;
2021/09/17 00:54:11;;;;;;;20.75;15.65;;;;;;;12.31;100;95307.36;;;;
2021/09/17 00:55:12;;;;;;;20.75;15.65;;;;;;;12.31;100;95307.36;;;;
2021/09/17 00:56:13;;;;;;;20.75;15.65;;;;;;;12.31;100;95307.36;;;;
2021/09/17 00:57:14;;;;;;;20.75;15.65;;;;;;;12.31;100;95307.36;;;;
2021/09/17 00:58:14;;;;;;;20.75;15.65;;;;;;;12.31;100;95307.36;;;;
2021/09/17 00:59:15;;;;;;;24.1;16.85;;;;;;;12.04;100;95306.76;;;;
2021/09/17 01:00:16;;;;;;;24.1;16.85;;;;;;;12.04;100;95306.76;;;;
2021/09/17 01:01:17;;;;;;;24.1;16.85;;;;;;;12.04;100;95306.76;;;;
2021/09/17 01:02:17;;;;;;;24.1;16.85;;;;;;;12.04;100;95306.76;;;;
2021/09/17 01:03:18;;;;;;;24.1;16.85;;;;;;;12.04;100;95306.76;;;;
2021/09/17 01:04:18;;;;;;;24.1;16.85;;;;;;;12.04;100;95306.76;;;;
2021/09/17 01:05:19;;;;;;;24.1;16.85;;;;;;;12.04;100;95306.76;;;;
2021/09/17 01:06:19;;;;;;;24.1;16.85;;;;;;;12.04;100;95306.76;;;;
2021/09/17 01:07:20;;;;;;;24.1;16.85;;;;;;;12.04;100;95306.76;;;;
2021/09/17 01:08:21;;;;;;;24.1;16.85;;;;;;;12.04;100;95306.76;;;;
2021/09/17 01:09:22;;;;;;;24.1;16.35;;;;;;;11.86;100;95293.98;;;;
2021/09/17 01:10:22;;;;;;;24.1;16.35;;;;;;;11.86;100;95293.98;;;;
2021/09/17 01:11:24;;;;;;;24.1;16.35;;;;;;;11.86;100;95293.98;;;;
2021/09/17 01:12:24;;;;;;;24.1;16.35;;;;;;;11.86;100;95293.98;;;;
2021/09/17 01:13:25;;;;;;;24.1;16.35;;;;;;;11.86;100;95293.98;;;;
2021/09/17 01:14:27;;;;;;;24.1;16.35;;;;;;;11.86;100;95293.98;;;;
2021/09/17 01:15:27;;;;;;;24.1;16.35;;;;;;;11.86;100;95293.98;;;;
2021/09/17 01:16:28;;;;;;;24.1;16.35;;;;;;;11.86;100;95293.98;;;;
2021/09/17 01:17:29;;;;;;;24.1;16.35;;;;;;;11.86;100;95293.98;;;;
2021/09/17 01:18:31;;;;;;;24.1;16.35;;;;;;;11.86;100;95293.98;;;;
2021/09/17 01:19:32;;;;;;;24.1;16.35;;;;;;;11.86;100;95293.98;;;;
2021/09/17 01:20:34;;;;;;;23;16.25;;;;;;;11.66;100;95287.81;;;;
2021/09/17 01:21:34;;;;;;;23;16.25;;;;;;;11.66;100;95287.81;;;;
2021/09/17 01:22:35;;;;;;;23;16.25;;;;;;;11.66;100;95287.81;;;;
2021/09/17 01:23:36;;;;;;;23;16.25;;;;;;;11.66;100;95287.81;;;;
2021/09/17 01:24:36;;;;;;;23;16.25;;;;;;;11.66;100;95287.81;;;;
2021/09/17 01:25:39;;;;;;;23;16.25;;;;;;;11.66;100;95287.81;;;;
2021/09/17 01:26:39;;;;;;;23;16.25;;;;;;;11.66;100;95287.81;;;;
2021/09/17 01:27:40;;;;;;;23;16.25;;;;;;;11.66;100;95287.81;;;;
2021/09/17 01:28:41;;;;;;;23;16.25;;;;;;;11.66;100;95287.81;;;;
2021/09/17 01:29:42;;;;;;;23;16.25;;;;;;;11.66;100;95287.81;;;;
2021/09/17 01:30:42;;;;;;;27.85;16.9;;;;;;;11.45;100;95279.28;;;;
2021/09/17 01:31:43;;;;;;;27.85;16.9;;;;;;;11.45;100;95279.28;;;;
2021/09/17 01:32:43;;;;;;;27.85;16.9;;;;;;;11.45;100;95279.28;;;;
2021/09/17 01:33:44;;;;;;;27.85;16.9;;;;;;;11.45;100;95279.28;;;;
2021/09/17 01:34:44;;;;;;;27.85;16.9;;;;;;;11.45;100;95279.28;;;;
2021/09/17 01:35:45;;;;;;;27.85;16.9;;;;;;;11.45;100;95279.28;;;;
2021/09/17 01:36:54;;;;;;;27.85;16.9;;;;;;;11.45;100;95279.28;;;;
2021/09/17 01:37:54;;;;;;;27.85;16.9;;;;;;;11.45;100;95279.28;;;;
2021/09/17 01:38:55;;;;;;;27.85;16.9;;;;;;;11.45;100;95279.28;;;;
2021/09/17 01:39:55;;;;;;;27.85;16.9;;;;;;;11.45;100;95279.28;;;;
2021/09/17 01:40:56;;;;;;;27.85;16.9;;;;;;;11.45;100;95279.28;;;;
2021/09/17 01:41:57;;;;;;;26.1;17.3;;;;;;;11.21;100;95269.19;;;;
2021/09/17 01:42:58;;;;;;;26.1;17.3;;;;;;;11.21;100;95269.19;;;;
2021/09/17 01:43:58;;;;;;;26.1;17.3;;;;;;;11.21;100;95269.19;;;;
2021/09/17 01:44:59;;;;;;;26.1;17.3;;;;;;;11.21;100;95269.19;;;;
2021/09/17 01:45:59;;;;;;;26.1;17.3;;;;;;;11.21;100;95269.19;;;;
2021/09/17 01:47:01;;;;;;;26.1;17.3;;;;;;;11.21;100;95269.19;;;;
2021/09/17 01:48:02;;;;;;;26.1;17.3;;;;;;;11.21;100;95269.19;;;;
2021/09/17 01:49:02;;;;;;;26.1;17.3;;;;;;;11.21;100;95269.19;;;;
2021/09/17 01:50:04;;;;;;;26.1;17.3;;;;;;;11.21;100;95269.19;;;;
2021/09/17 01:51:06;;;;;;;26.1;17.3;;;;;;;11.21;100;95269.19;;;;
2021/09/17 01:52:07;;;;;;;26.55;18.05;;;;;;;11.1;100;95266.96;;;;
2021/09/17 01:53:08;;;;;;;26.55;18.05;;;;;;;11.1;100;95266.96;;;;
2021/09/17 01:54:09;;;;;;;26.55;18.05;;;;;;;11.1;100;95266.96;;;;
2021/09/17 01:55:09;;;;;;;26.55;18.05;;;;;;;11.1;100;95266.96;;;;
2021/09/17 01:56:11;;;;;;;26.55;18.05;;;;;;;11.1;100;95266.96;;;;
2021/09/17 01:57:12;;;;;;;26.55;18.05;;;;;;;11.1;100;95266.96;;;;
2021/09/17 01:58:12;;;;;;;26.55;18.05;;;;;;;11.1;100;95266.96;;;;
2021/09/17 01:59:13;;;;;;;26.55;18.05;;;;;;;11.1;100;95266.96;;;;
2021/09/17 02:00:13;;;;;;;26.55;18.05;;;;;;;11.1;100;95266.96;;;;
2021/09/17 02:01:15;;;;;;;26.55;18.05;;;;;;;11.1;100;95266.96;;;;
2021/09/17 02:02:16;;;;;;;26.55;18.05;;;;;;;11.1;100;95266.96;;;;
2021/09/17 02:03:16;;;;;;;28.3;18.25;;;;;;;11.14;100;95267.67;;;;
2021/09/17 02:04:19;;;;;;;28.3;18.25;;;;;;;11.14;100;95267.67;;;;
2021/09/17 02:05:19;;;;;;;28.3;18.25;;;;;;;11.14;100;95267.67;;;;
2021/09/17 02:06:20;;;;;;;28.3;18.25;;;;;;;11.14;100;95267.67;;;;
2021/09/17 02:07:22;;;;;;;28.3;18.25;;;;;;;11.14;100;95267.67;;;;
2021/09/17 02:08:22;;;;;;;28.3;18.25;;;;;;;11.14;100;95267.67;;;;
2021/09/17 02:09:23;;;;;;;28.3;18.25;;;;;;;11.14;100;95267.67;;;;
2021/09/17 02:10:23;;;;;;;28.3;18.25;;;;;;;11.14;100;95267.67;;;;
2021/09/17 02:11:24;;;;;;;28.3;18.25;;;;;;;11.14;100;95267.67;;;;
2021/09/17 02:12:25;;;;;;;28.3;18.25;;;;;;;11.14;100;95267.67;;;;
2021/09/17 02:13:26;;;;;;;28.35;20;;;;;;;11.32;100;95278.73;;;;
2021/09/17 02:14:26;;;;;;;28.35;20;;;;;;;11.32;100;95278.73;;;;
2021/09/17 02:15:27;;;;;;;28.35;20;;;;;;;11.32;100;95278.73;;;;
2021/09/17 02:16:28;;;;;;;28.35;20;;;;;;;11.32;100;95278.73;;;;
2021/09/17 02:17:30;;;;;;;28.35;20;;;;;;;11.32;100;95278.73;;;;
2021/09/17 02:18:31;;;;;;;28.35;20;;;;;;;11.32;100;95278.73;;;;
2021/09/17 02:19:32;;;;;;;28.35;20;;;;;;;11.32;100;95278.73;;;;
2021/09/17 02:20:33;;;;;;;28.35;20;;;;;;;11.32;100;95278.73;;;;
2021/09/17 02:21:33;;;;;;;28.35;20;;;;;;;11.32;100;95278.73;;;;
2021/09/17 02:22:34;;;;;;;28.35;20;;;;;;;11.32;100;95278.73;;;;
2021/09/17 02:23:35;;;;;;;28.35;20;;;;;;;11.32;100;95278.73;;;;
2021/09/17 02:24:35;;;;;;;27.05;18.75;;;;;;;11.58;100;95281.67;;;;
2021/09/17 02:25:36;;;;;;;27.05;18.75;;;;;;;11.58;100;95281.67;;;;
2021/09/17 02:26:36;;;;;;;27.05;18.75;;;;;;;11.58;100;95281.67;;;;
2021/09/17 02:27:37;;;;;;;27.05;18.75;;;;;;;11.58;100;95281.67;;;;
2021/09/17 02:28:37;;;;;;;27.05;18.75;;;;;;;11.58;100;95281.67;;;;
2021/09/17 02:29:37;;;;;;;27.05;18.75;;;;;;;11.58;100;95281.67;;;;
2021/09/17 02:30:38;;;;;;;27.05;18.75;;;;;;;11.58;100;95281.67;;;;
2021/09/17 02:31:40;;;;;;;27.05;18.75;;;;;;;11.58;100;95281.67;;;;
2021/09/17 02:32:40;;;;;;;27.05;18.75;;;;;;;11.58;100;95281.67;;;;
2021/09/17 02:33:41;;;;;;;27.05;18.75;;;;;;;11.58;100;95281.67;;;;
2021/09/17 02:34:42;;;;;;;24.7;17.65;;;;;;;11.79;100;95294.14;;;;
2021/09/17 02:35:43;;;;;;;24.7;17.65;;;;;;;11.79;100;95294.14;;;;
2021/09/17 02:36:43;;;;;;;24.7;17.65;;;;;;;11.79;100;95294.14;;;;
2021/09/17 02:37:44;;;;;;;24.7;17.65;;;;;;;11.79;100;95294.14;;;;
2021/09/17 02:38:45;;;;;;;24.7;17.65;;;;;;;11.79;100;95294.14;;;;
2021/09/17 02:39:45;;;;;;;24.7;17.65;;;;;;;11.79;100;95294.14;;;;
2021/09/17 02:40:46;;;;;;;24.7;17.65;;;;;;;11.79;100;95294.14;;;;
2021/09/17 02:41:47;;;;;;;24.7;17.65;;;;;;;11.79;100;95294.14;;;;
2021/09/17 02:42:47;;;;;;;24.7;17.65;;;;;;;11.79;100;95294.14;;;;
2021/09/17 02:43:48;;;;;;;24.7;17.65;;;;;;;11.79;100;95294.14;;;;
2021/09/17 02:44:48;;;;;;;24.7;17.65;;;;;;;11.79;100;95294.14;;;;
2021/09/17 02:45:49;;;;;;;23.25;16.75;;;;;;;11.94;100;95291.31;;;;
2021/09/17 02:46:49;;;;;;;23.25;16.75;;;;;;;11.94;100;95291.31;;;;
2021/09/17 02:47:50;;;;;;;23.25;16.75;;;;;;;11.94;100;95291.31;;;;
2021/09/17 02:48:50;;;;;;;23.25;16.75;;;;;;;11.94;100;95291.31;;;;
2021/09/17 02:49:51;;;;;;;23.25;16.75;;;;;;;11.94;100;95291.31;;;;
2021/09/17 02:50:51;;;;;;;23.25;16.75;;;;;;;11.94;100;95291.31;;;;
2021/09/17 02:51:52;;;;;;;23.25;16.75;;;;;;;11.94;100;95291.31;;;;
2021/09/17 02:52:52;;;;;;;23.25;16.75;;;;;;;11.94;100;95291.31;;;;
2021/09/17 02:53:53;;;;;;;23.25;16.75;;;;;;;11.94;100;95291.31;;;;
2021/09/17 02:54:53;;;;;;;23.25;16.75;;;;;;;11.94;100;95291.31;;;;
2021/09/17 02:55:54;;;;;;;23.25;16.75;;;;;;;11.94;100;95291.31;;;;
2021/09/17 02:56:55;;;;;;;21.45;15.55;;;;;;;12.04;100;95286.58;;;;
2021/09/17 02:57:55;;;;;;;21.45;15.55;;;;;;;12.04;100;95286.58;;;;
2021/09/17 02:58:56;;;;;;;21.45;15.55;;;;;;;12.04;100;95286.58;;;;
2021/09/17 02:59:56;;;;;;;21.45;15.55;;;;;;;12.04;100;95286.58;;;;
2021/09/17 03:00:57;;;;;;;21.45;15.55;;;;;;;12.04;100;95286.58;;;;
2021/09/17 03:01:57;;;;;;;21.45;15.55;;;;;;;12.04;100;95286.58;;;;
2021/09/17 03:02:58;;;;;;;21.45;15.55;;;;;;;12.04;100;95286.58;;;;
2021/09/17 03:03:58;;;;;;;21.45;15.55;;;;;;;12.04;100;95286.58;;;;
2021/09/17 03:04:59;;;;;;;21.45;15.55;;;;;;;12.04;100;95286.58;;;;
2021/09/17 03:06:00;;;;;;;21.45;15.55;;;;;;;12.04;100;95286.58;;;;
2021/09/17 03:07:00;;;;;;;19.3;14.1;;;;;;;12.02;100;95282.78;;;;
2021/09/17 03:08:01;;;;;;;19.3;14.1;;;;;;;12.02;100;95282.78;;;;
2021/09/17 03:09:02;;;;;;;19.3;14.1;;;;;;;12.02;100;95282.78;;;;
2021/09/17 03:10:02;;;;;;;19.3;14.1;;;;;;;12.02;100;95282.78;;;;
2021/09/17 03:11:04;;;;;;;19.3;14.1;;;;;;;12.02;100;95282.78;;;;
2021/09/17 03:12:04;;;;;;;19.3;14.1;;;;;;;12.02;100;95282.78;;;;
2021/09/17 03:13:06;;;;;;;19.3;14.1;;;;;;;12.02;100;95282.78;;;;
2021/09/17 03:14:06;;;;;;;19.3;14.1;;;;;;;12.02;100;95282.78;;;;
2021/09/17 03:15:07;;;;;;;19.3;14.1;;;;;;;12.02;100;95282.78;;;;
2021/09/17 03:16:08;;;;;;;19.3;14.1;;;;;;;12.02;100;95282.78;;;;
2021/09/17 03:17:09;;;;;;;19.3;14.1;;;;;;;12.02;100;95282.78;;;;
2021/09/17 03:18:09;;;;;;;19.7;14.4;;;;;;;11.89;100;95274.16;;;;
2021/09/17 03:19:10;;;;;;;19.7;14.4;;;;;;;11.89;100;95274.16;;;;
2021/09/17 03:20:10;;;;;;;19.7;14.4;;;;;;;11.89;100;95274.16;;;;
2021/09/17 03:21:12;;;;;;;19.7;14.4;;;;;;;11.89;100;95274.16;;;;
2021/09/17 03:22:12;;;;;;;19.7;14.4;;;;;;;11.89;100;95274.16;;;;
2021/09/17 03:23:13;;;;;;;19.7;14.4;;;;;;;11.89;100;95274.16;;;;
2021/09/17 03:24:14;;;;;;;19.7;14.4;;;;;;;11.89;100;95274.16;;;;
2021/09/17 03:25:14;;;;;;;19.7;14.4;;;;;;;11.89;100;95274.16;;;;
2021/09/17 03:26:15;;;;;;;19.7;14.4;;;;;;;11.89;100;95274.16;;;;
2021/09/17 03:27:16;;;;;;;19.7;14.4;;;;;;;11.89;100;95274.16;;;;
2021/09/17 03:28:16;;;;;;;21.65;14.55;;;;;;;11.7;100;95271.26;;;;
2021/09/17 03:29:17;;;;;;;21.65;14.55;;;;;;;11.7;100;95271.26;;;;
2021/09/17 03:30:17;;;;;;;21.65;14.55;;;;;;;11.7;100;95271.26;;;;
2021/09/17 03:31:18;;;;;;;21.65;14.55;;;;;;;11.7;100;95271.26;;;;
2021/09/17 03:32:18;;;;;;;21.65;14.55;;;;;;;11.7;100;95271.26;;;;
2021/09/17 03:33:19;;;;;;;21.65;14.55;;;;;;;11.7;100;95271.26;;;;
2021/09/17 03:34:19;;;;;;;21.65;14.55;;;;;;;11.7;100;95271.26;;;;
2021/09/17 03:35:20;;;;;;;21.65;14.55;;;;;;;11.7;100;95271.26;;;;
2021/09/17 03:36:20;;;;;;;21.65;14.55;;;;;;;11.7;100;95271.26;;;;
2021/09/17 03:37:21;;;;;;;21.65;14.55;;;;;;;11.7;100;95271.26;;;;
2021/09/17 03:38:21;;;;;;;21.65;14.55;;;;;;;11.7;100;95271.26;;;;
2021/09/17 03:39:22;;;;;;;21.95;15.95;;;;;;;11.71;100;95266.67;;;;
2021/09/17 03:40:23;;;;;;;21.95;15.95;;;;;;;11.71;100;95266.67;;;;
2021/09/17 03:41:23;;;;;;;21.95;15.95;;;;;;;11.71;100;95266.67;;;;
2021/09/17 03:42:24;;;;;;;21.95;15.95;;;;;;;11.71;100;95266.67;;;;
2021/09/17 03:43:25;;;;;;;21.95;15.95;;;;;;;11.71;100;95266.67;;;;
2021/09/17 03:44:26;;;;;;;21.95;15.95;;;;;;;11.71;100;95266.67;;;;
2021/09/17 03:45:26;;;;;;;21.95;15.95;;;;;;;11.71;100;95266.67;;;;
2021/09/17 03:46:27;;;;;;;21.95;15.95;;;;;;;11.71;100;95266.67;;;;
2021/09/17 03:47:27;;;;;;;21.95;15.95;;;;;;;11.71;100;95266.67;;;;
2021/09/17 03:48:28;;;;;;;21.95;15.95;;;;;;;11.71;100;95266.67;;;;
2021/09/17 03:49:28;;;;;;;23.7;16.35;;;;;;;11.79;100;95264.9;;;;
2021/09/17 03:50:29;;;;;;;23.7;16.35;;;;;;;11.79;100;95264.9;;;;
2021/09/17 03:51:29;;;;;;;23.7;16.35;;;;;;;11.79;100;95264.9;;;;
2021/09/17 03:52:30;;;;;;;23.7;16.35;;;;;;;11.79;100;95264.9;;;;
2021/09/17 03:53:30;;;;;;;23.7;16.35;;;;;;;11.79;100;95264.9;;;;
2021/09/17 03:54:31;;;;;;;23.7;16.35;;;;;;;11.79;100;95264.9;;;;
2021/09/17 03:55:32;;;;;;;23.7;16.35;;;;;;;11.79;100;95264.9;;;;
2021/09/17 03:56:33;;;;;;;23.7;16.35;;;;;;;11.79;100;95264.9;;;;
2021/09/17 03:57:34;;;;;;;23.7;16.35;;;;;;;11.79;100;95264.9;;;;
2021/09/17 03:58:34;;;;;;;23.7;16.35;;;;;;;11.79;100;95264.9;;;;
2021/09/17 03:59:35;;;;;;;23.7;16.35;;;;;;;11.79;100;95264.9;;;;
2021/09/17 04:00:35;;;;;;;25.2;16.4;;;;;;;11.88;100;95261.58;;;;
2021/09/17 04:01:36;;;;;;;25.2;16.4;;;;;;;11.88;100;95261.58;;;;
2021/09/17 04:02:36;;;;;;;25.2;16.4;;;;;;;11.88;100;95261.58;;;;
2021/09/17 04:03:37;;;;;;;25.2;16.4;;;;;;;11.88;100;95261.58;;;;
2021/09/17 04:04:39;;;;;;;25.2;16.4;;;;;;;11.88;100;95261.58;;;;
2021/09/17 04:05:40;;;;;;;25.2;16.4;;;;;;;11.88;100;95261.58;;;;
2021/09/17 04:06:42;;;;;;;25.2;16.4;;;;;;;11.88;100;95261.58;;;;
2021/09/17 04:07:43;;;;;;;25.2;16.4;;;;;;;11.88;100;95261.58;;;;
2021/09/17 04:08:44;;;;;;;25.2;16.4;;;;;;;11.88;100;95261.58;;;;
2021/09/17 04:09:44;;;;;;;25.2;16.4;;;;;;;11.88;100;95261.58;;;;
2021/09/17 04:10:44;;;;;;;23.3;15.15;;;;;;;11.91;100;95257.01;;;;
2021/09/17 04:11:45;;;;;;;23.3;15.15;;;;;;;11.91;100;95257.01;;;;
2021/09/17 04:12:45;;;;;;;23.3;15.15;;;;;;;11.91;100;95257.01;;;;
2021/09/17 04:13:46;;;;;;;23.3;15.15;;;;;;;11.91;100;95257.01;;;;
2021/09/17 04:14:47;;;;;;;23.3;15.15;;;;;;;11.91;100;95257.01;;;;
2021/09/17 04:15:47;;;;;;;23.3;15.15;;;;;;;11.91;100;95257.01;;;;
2021/09/17 04:16:48;;;;;;;23.3;15.15;;;;;;;11.91;100;95257.01;;;;
2021/09/17 04:17:48;;;;;;;23.3;15.15;;;;;;;11.91;100;95257.01;;;;
2021/09/17 04:18:49;;;;;;;23.3;15.15;;;;;;;11.91;100;95257.01;;;;
2021/09/17 04:19:50;;;;;;;23.3;15.15;;;;;;;11.91;100;95257.01;;;;
2021/09/17 04:20:51;;;;;;;23.3;15.15;;;;;;;11.91;100;95257.01;;;;
2021/09/17 04:21:52;;;;;;;22;15.9;;;;;;;11.9;100;95254.15;;;;
2021/09/17 04:22:52;;;;;;;22;15.9;;;;;;;11.9;100;95254.15;;;;
2021/09/17 04:23:53;;;;;;;22;15.9;;;;;;;11.9;100;95254.15;;;;
2021/09/17 04:24:53;;;;;;;22;15.9;;;;;;;11.9;100;95254.15;;;;
2021/09/17 04:25:54;;;;;;;22;15.9;;;;;;;11.9;100;95254.15;;;;
2021/09/17 04:26:54;;;;;;;22;15.9;;;;;;;11.9;100;95254.15;;;;
2021/09/17 04:27:55;;;;;;;22;15.9;;;;;;;11.9;100;95254.15;;;;
2021/09/17 04:28:56;;;;;;;22;15.9;;;;;;;11.9;100;95254.15;;;;
2021/09/17 04:29:56;;;;;;;22;15.9;;;;;;;11.9;100;95254.15;;;;
2021/09/17 04:30:57;;;;;;;22;15.9;;;;;;;11.9;100;95254.15;;;;
2021/09/17 04:31:57;;;;;;;22;15.9;;;;;;;11.9;100;95254.15;;;;
2021/09/17 04:32:58;;;;;;;21.9;15.7;;;;;;;11.86;100;95253.81;;;;
2021/09/17 04:33:58;;;;;;;21.9;15.7;;;;;;;11.86;100;95253.81;;;;
2021/09/17 04:34:59;;;;;;;21.9;15.7;;;;;;;11.86;100;95253.81;;;;
2021/09/17 04:35:59;;;;;;;21.9;15.7;;;;;;;11.86;100;95253.81;;;;
2021/09/17 04:37:00;;;;;;;21.9;15.7;;;;;;;11.86;100;95253.81;;;;
2021/09/17 04:38:00;;;;;;;21.9;15.7;;;;;;;11.86;100;95253.81;;;;
2021/09/17 04:39:01;;;;;;;21.9;15.7;;;;;;;11.86;100;95253.81;;;;
2021/09/17 04:40:02;;;;;;;21.9;15.7;;;;;;;11.86;100;95253.81;;;;
2021/09/17 04:41:03;;;;;;;21.9;15.7;;;;;;;11.86;100;95253.81;;;;
2021/09/17 04:42:03;;;;;;;21.9;15.7;;;;;;;11.86;100;95253.81;;;;
2021/09/17 04:43:05;;;;;;;21.9;15.7;;;;;;;11.86;100;95253.81;;;;
2021/09/17 04:44:05;;;;;;;21.9;15.7;;;;;;;11.86;100;95253.81;;;;
2021/09/17 04:45:06;;;;;;;21.9;15.7;;;;;;;11.86;100;95253.81;;;;
2021/09/17 04:46:08;;;;;;;21.9;15.7;;;;;;;11.86;100;95253.81;;;;
2021/09/17 04:47:09;;;;;;;21.9;15.7;;;;;;;11.86;100;95253.81;;;;
2021/09/17 04:48:09;;;;;;;21.9;15.7;;;;;;;11.86;100;95253.81;;;;
2021/09/17 04:49:11;;;;;;;21.9;15.7;;;;;;;11.86;100;95253.81;;;;
2021/09/17 04:50:12;;;;;;;21.9;15.7;;;;;;;11.86;100;95253.81;;;;
2021/09/17 04:51:12;;;;;;;21.9;15.7;;;;;;;11.86;100;95253.81;;;;
2021/09/17 04:52:13;;;;;;;21.9;15.7;;;;;;;11.86;100;95253.81;;;;
2021/09/17 04:53:14;;;;;;;21.9;15.7;;;;;;;11.86;100;95253.81;;;;
2021/09/17 04:54:14;;;;;;;21.9;15.7;;;;;;;11.86;100;95253.81;;;;
2021/09/17 04:55:16;;;;;;;21.9;15.7;;;;;;;11.86;100;95253.81;;;;
2021/09/17 04:56:17;;;;;;;21.9;15.7;;;;;;;11.86;100;95253.81;;;;
2021/09/17 04:57:18;;;;;;;21.9;15.7;;;;;;;11.86;100;95253.81;;;;
2021/09/17 04:58:18;;;;;;;21.9;15.7;;;;;;;11.86;100;95253.81;;;;
2021/09/17 04:59:19;;;;;;;21.9;15.7;;;;;;;11.86;100;95253.81;;;;
2021/09/17 05:00:19;;;;;;;21.9;15.7;;;;;;;11.86;100;95253.81;;;;
2021/09/17 05:01:20;;;;;;;21.9;15.7;;;;;;;11.86;100;95253.81;;;;
2021/09/17 05:02:20;;;;;;;21.9;15.7;;;;;;;11.86;100;95253.81;;;;
2021/09/17 05:03:21;;;;;;;21.9;15.7;;;;;;;11.86;100;95253.81;;;;
2021/09/17 05:04:21;;;;;;;24.2;16.4;;;;;;;12.14;100;95278.66;;;;
2021/09/17 05:05:22;;;;;;;24.2;16.4;;;;;;;12.14;100;95278.66;;;;
2021/09/17 05:06:23;;;;;;;24.2;16.4;;;;;;;12.14;100;95278.66;;;;
2021/09/17 05:07:23;;;;;;;24.2;16.4;;;;;;;12.14;100;95278.66;;;;
2021/09/17 05:08:24;;;;;;;24.2;16.4;;;;;;;12.14;100;95278.66;;;;
2021/09/17 05:09:24;;;;;;;24.2;16.4;;;;;;;12.14;100;95278.66;;;;
2021/09/17 05:10:25;;;;;;;24.2;16.4;;;;;;;12.14;100;95278.66;;;;
2021/09/17 05:11:26;;;;;;;24.2;16.4;;;;;;;12.14;100;95278.66;;;;
2021/09/17 05:12:27;;;;;;;24.2;16.4;;;;;;;12.14;100;95278.66;;;;
2021/09/17 05:13:28;;;;;;;24.2;16.4;;;;;;;12.14;100;95278.66;;;;
2021/09/17 05:14:28;;;;;;;24.2;16.4;;;;;;;12.14;100;95278.66;;;;
2021/09/17 05:15:29;;;;;;;22.4;16.55;;;;;;;12.26;100;95288.34;;;;
2021/09/17 05:16:32;;;;;;;22.4;16.55;;;;;;;12.26;100;95288.34;;;;
2021/09/17 05:17:32;;;;;;;22.4;16.55;;;;;;;12.26;100;95288.34;;;;
2021/09/17 05:18:33;;;;;;;22.4;16.55;;;;;;;12.26;100;95288.34;;;;
2021/09/17 05:19:33;;;;;;;22.4;16.55;;;;;;;12.26;100;95288.34;;;;
2021/09/17 05:20:34;;;;;;;22.4;16.55;;;;;;;12.26;100;95288.34;;;;
2021/09/17 05:21:34;;;;;;;22.4;16.55;;;;;;;12.26;100;95288.34;;;;
2021/09/17 05:22:35;;;;;;;22.4;16.55;;;;;;;12.26;100;95288.34;;;;
2021/09/17 05:23:35;;;;;;;22.4;16.55;;;;;;;12.26;100;95288.34;;;;
2021/09/17 05:24:36;;;;;;;22.4;16.55;;;;;;;12.26;100;95288.34;;;;
2021/09/17 05:25:37;;;;;;;23.65;16.25;;;;;;;12.38;100;95285.53;;;;
2021/09/17 05:26:37;;;;;;;23.65;16.25;;;;;;;12.38;100;95285.53;;;;
2021/09/17 05:27:37;;;;;;;23.65;16.25;;;;;;;12.38;100;95285.53;;;;
2021/09/17 05:28:38;;;;;;;23.65;16.25;;;;;;;12.38;100;95285.53;;;;
2021/09/17 05:29:38;;;;;;;23.65;16.25;;;;;;;12.38;100;95285.53;;;;
2021/09/17 05:30:39;;;;;;;23.65;16.25;;;;;;;12.38;100;95285.53;;;;
2021/09/17 05:31:40;;;;;;;23.65;16.25;;;;;;;12.38;100;95285.53;;;;
2021/09/17 05:32:41;;;;;;;23.65;16.25;;;;;;;12.38;100;95285.53;;;;
2021/09/17 05:33:41;;;;;;;23.65;16.25;;;;;;;12.38;100;95285.53;;;;
2021/09/17 05:34:42;;;;;;;23.65;16.25;;;;;;;12.38;100;95285.53;;;;
2021/09/17 05:35:42;;;;;;;23.65;16.25;;;;;;;12.38;100;95285.53;;;;
2021/09/17 05:36:43;;;;;;;22.3;16.15;;;;;;;12.51;100;95289.67;;;;
2021/09/17 05:37:44;;;;;;;22.3;16.15;;;;;;;12.51;100;95289.67;;;;
2021/09/17 05:38:44;;;;;;;22.3;16.15;;;;;;;12.51;100;95289.67;;;;
2021/09/17 05:39:45;;;;;;;22.3;16.15;;;;;;;12.51;100;95289.67;;;;
2021/09/17 05:40:45;;;;;;;22.3;16.15;;;;;;;12.51;100;95289.67;;;;
2021/09/17 05:41:46;;;;;;;22.3;16.15;;;;;;;12.51;100;95289.67;;;;
2021/09/17 05:42:46;;;;;;;22.3;16.15;;;;;;;12.51;100;95289.67;;;;
2021/09/17 05:43:47;;;;;;;22.3;16.15;;;;;;;12.51;100;95289.67;;;;
2021/09/17 05:44:48;;;;;;;22.3;16.15;;;;;;;12.51;100;95289.67;;;;
2021/09/17 05:45:48;;;;;;;22.3;16.15;;;;;;;12.51;100;95289.67;;;;
2021/09/17 05:46:48;;;;;;;22.3;16.15;;;;;;;12.65;100;95290.97;;;;
2021/09/17 05:47:49;;;;;;;22.3;16.15;;;;;;;12.65;100;95290.97;;;;
2021/09/17 05:48:49;;;;;;;22.3;16.15;;;;;;;12.65;100;95290.97;;;;
2021/09/17 05:49:50;;;;;;;22.3;16.15;;;;;;;12.65;100;95290.97;;;;
2021/09/17 05:50:50;;;;;;;22.3;16.15;;;;;;;12.65;100;95290.97;;;;
2021/09/17 05:51:52;;;;;;;22.3;16.15;;;;;;;12.65;100;95290.97;;;;
2021/09/17 05:52:52;;;;;;;22.3;16.15;;;;;;;12.65;100;95290.97;;;;
2021/09/17 05:53:53;;;;;;;22.3;16.15;;;;;;;12.65;100;95290.97;;;;
2021/09/17 05:54:53;;;;;;;22.3;16.15;;;;;;;12.65;100;95290.97;;;;
2021/09/17 05:55:54;;;;;;;22.3;16.15;;;;;;;12.65;100;95290.97;;;;
2021/09/17 05:56:54;;;;;;;22.3;16.15;;;;;;;12.65;100;95290.97;;;;
2021/09/17 05:57:55;;;;;;;23.25;15.75;;;;;;;12.96;100;95297.64;;;;
2021/09/17 05:58:56;;;;;;;23.25;15.75;;;;;;;12.96;100;95297.64;;;;
2021/09/17 05:59:56;;;;;;;23.25;15.75;;;;;;;12.96;100;95297.64;;;;
2021/09/17 06:00:57;;;;;;;23.25;15.75;;;;;;;12.96;100;95297.64;;;;
2021/09/17 06:01:58;;;;;;;23.25;15.75;;;;;;;12.96;100;95297.64;;;;
2021/09/17 06:02:59;;;;;;;23.25;15.75;;;;;;;12.96;100;95297.64;;;;
2021/09/17 06:03:59;;;;;;;23.25;15.75;;;;;;;12.96;100;95297.64;;;;
2021/09/17 06:04:59;;;;;;;23.25;15.75;;;;;;;12.96;100;95297.64;;;;
2021/09/17 06:06:00;;;;;;;23.25;15.75;;;;;;;12.96;100;95297.64;;;;